sensor_id;sensor_type;location;lat;lon;timestamp;pressure;altitude;pressure_sealevel;temperature;humidity
54369;BME280;40266;52.434;17.056;2023-09-19T00:01:13;99768.27;;;18.89;90.65
54369;BME280;40266;52.434;17.056;2023-09-19T00:03:57;99783.29;;;18.87;91.51
54369;BME280;40266;52.434;17.056;2023-09-19T00:06:41;99791.80;;;18.84;91.76
54369;BME280;40266;52.434;17.056;2023-09-19T00:09:25;99790.83;;;18.80;92.28
54369;BME280;40266;52.434;17.056;2023-09-19T00:12:11;99783.61;;;18.76;92.36
54369;BME280;40266;52.434;17.056;2023-09-19T00:14:56;99776.25;;;18.72;92.84
54369;BME280;40266;52.434;17.056;2023-09-19T00:17:39;99779.84;;;18.69;92.91
54369;BME280;40266;52.434;17.056;2023-09-19T00:20:23;99789.05;;;18.66;93.60
54369;BME280;40266;52.434;17.056;2023-09-19T00:23:07;99787.73;;;18.59;94.58
54369;BME280;40266;52.434;17.056;2023-09-19T00:25:53;99799.30;;;18.52;95.06
54369;BME280;40266;52.434;17.056;2023-09-19T00:28:40;99802.75;;;18.48;95.25
54369;BME280;40266;52.434;17.056;2023-09-19T00:31:23;99806.91;;;18.46;95.75
54369;BME280;40266;52.434;17.056;2023-09-19T00:34:06;99813.81;;;18.44;96.09
54369;BME280;40266;52.434;17.056;2023-09-19T00:36:51;99823.89;;;18.41;96.64
54369;BME280;40266;52.434;17.056;2023-09-19T00:39:37;99833.80;;;18.38;96.99
54369;BME280;40266;52.434;17.056;2023-09-19T00:42:20;99823.70;;;18.35;97.96
54369;BME280;40266;52.434;17.056;2023-09-19T00:45:05;99817.58;;;18.31;98.07
54369;BME280;40266;52.434;17.056;2023-09-19T00:47:49;99818.40;;;18.27;98.53
54369;BME280;40266;52.434;17.056;2023-09-19T00:50:35;99818.14;;;18.22;99.39
54369;BME280;40266;52.434;17.056;2023-09-19T00:53:21;99809.77;;;18.21;98.95
54369;BME280;40266;52.434;17.056;2023-09-19T00:56:06;99813.55;;;18.20;99.42
54369;BME280;40266;52.434;17.056;2023-09-19T00:58:49;99814.39;;;18.18;99.73
54369;BME280;40266;52.434;17.056;2023-09-19T01:01:44;99802.54;;;18.15;99.79
54369;BME280;40266;52.434;17.056;2023-09-19T01:04:32;99796.40;;;18.14;99.98
54369;BME280;40266;52.434;17.056;2023-09-19T01:07:15;99797.83;;;18.14;99.97
54369;BME280;40266;52.434;17.056;2023-09-19T01:09:58;99790.84;;;18.12;100.00
54369;BME280;40266;52.434;17.056;2023-09-19T01:13:05;99790.72;;;18.12;100.00
54369;BME280;40266;52.434;17.056;2023-09-19T01:15:57;99776.39;;;18.12;100.00
54369;BME280;40266;52.434;17.056;2023-09-19T01:28:14;99790.25;;;18.08;100.00
54369;BME280;40266;52.434;17.056;2023-09-19T01:30:58;99787.46;;;18.08;100.00
54369;BME280;40266;52.434;17.056;2023-09-19T01:34:00;99789.83;;;18.06;100.00
54369;BME280;40266;52.434;17.056;2023-09-19T01:36:44;99792.20;;;18.05;100.00
54369;BME280;40266;52.434;17.056;2023-09-19T01:39:28;99792.77;;;18.05;100.00
54369;BME280;40266;52.434;17.056;2023-09-19T01:42:24;99795.12;;;18.04;100.00
54369;BME280;40266;52.434;17.056;2023-09-19T01:45:22;99792.88;;;18.03;100.00
54369;BME280;40266;52.434;17.056;2023-09-19T01:48:28;99802.59;;;18.03;100.00
54369;BME280;40266;52.434;17.056;2023-09-19T01:51:33;99804.02;;;18.03;100.00
54369;BME280;40266;52.434;17.056;2023-09-19T01:54:24;99801.57;;;18.03;100.00
54369;BME280;40266;52.434;17.056;2023-09-19T02:00:11;99786.48;;;18.01;100.00
54369;BME280;40266;52.434;17.056;2023-09-19T02:02:56;99783.89;;;17.99;100.00
54369;BME280;40266;52.434;17.056;2023-09-19T02:05:48;99783.92;;;17.99;100.00
54369;BME280;40266;52.434;17.056;2023-09-19T02:08:31;99779.50;;;17.99;100.00
54369;BME280;40266;52.434;17.056;2023-09-19T02:11:16;99776.56;;;17.98;100.00
54369;BME280;40266;52.434;17.056;2023-09-19T02:13:59;99775.47;;;17.96;100.00
54369;BME280;40266;52.434;17.056;2023-09-19T02:16:42;99773.52;;;17.96;100.00
54369;BME280;40266;52.434;17.056;2023-09-19T02:19:25;99776.64;;;17.94;100.00
54369;BME280;40266;52.434;17.056;2023-09-19T02:22:08;99777.50;;;17.95;100.00
54369;BME280;40266;52.434;17.056;2023-09-19T02:24:53;99776.20;;;17.96;100.00
54369;BME280;40266;52.434;17.056;2023-09-19T02:27:36;99780.78;;;17.96;100.00
54369;BME280;40266;52.434;17.056;2023-09-19T02:30:20;99777.52;;;17.97;100.00
54369;BME280;40266;52.434;17.056;2023-09-19T02:33:07;99774.17;;;17.97;100.00
54369;BME280;40266;52.434;17.056;2023-09-19T02:35:58;99782.87;;;17.96;100.00
54369;BME280;40266;52.434;17.056;2023-09-19T02:38:41;99782.28;;;17.97;100.00
54369;BME280;40266;52.434;17.056;2023-09-19T02:41:24;99779.61;;;17.97;100.00
54369;BME280;40266;52.434;17.056;2023-09-19T02:44:07;99785.64;;;17.97;100.00
54369;BME280;40266;52.434;17.056;2023-09-19T02:46:50;99781.42;;;17.97;100.00
54369;BME280;40266;52.434;17.056;2023-09-19T02:49:33;99783.27;;;17.98;100.00
54369;BME280;40266;52.434;17.056;2023-09-19T02:52:17;99786.02;;;18.00;100.00
54369;BME280;40266;52.434;17.056;2023-09-19T02:55:00;99786.71;;;18.00;100.00
54369;BME280;40266;52.434;17.056;2023-09-19T02:57:48;99789.02;;;18.00;100.00
54369;BME280;40266;52.434;17.056;2023-09-19T03:00:31;99796.14;;;17.99;100.00
54369;BME280;40266;52.434;17.056;2023-09-19T03:03:17;99798.17;;;17.97;100.00
54369;BME280;40266;52.434;17.056;2023-09-19T03:06:00;99798.29;;;17.95;100.00
54369;BME280;40266;52.434;17.056;2023-09-19T03:08:47;99797.10;;;17.91;100.00
54369;BME280;40266;52.434;17.056;2023-09-19T03:11:31;99794.33;;;17.90;100.00
54369;BME280;40266;52.434;17.056;2023-09-19T03:14:14;99787.47;;;17.87;100.00
54369;BME280;40266;52.434;17.056;2023-09-19T03:16:58;99784.27;;;17.85;100.00
54369;BME280;40266;52.434;17.056;2023-09-19T03:19:43;99775.24;;;17.82;100.00
54369;BME280;40266;52.434;17.056;2023-09-19T03:22:27;99772.71;;;17.80;100.00
54369;BME280;40266;52.434;17.056;2023-09-19T03:25:10;99776.00;;;17.78;100.00
54369;BME280;40266;52.434;17.056;2023-09-19T03:27:56;99777.40;;;17.75;100.00
54369;BME280;40266;52.434;17.056;2023-09-19T03:30:41;99771.18;;;17.73;100.00
54369;BME280;40266;52.434;17.056;2023-09-19T03:33:24;99761.98;;;17.70;100.00
54369;BME280;40266;52.434;17.056;2023-09-19T03:36:07;99759.82;;;17.66;100.00
54369;BME280;40266;52.434;17.056;2023-09-19T03:38:50;99760.00;;;17.60;100.00
54369;BME280;40266;52.434;17.056;2023-09-19T03:41:33;99761.70;;;17.55;100.00
54369;BME280;40266;52.434;17.056;2023-09-19T03:44:19;99764.27;;;17.51;100.00
54369;BME280;40266;52.434;17.056;2023-09-19T03:47:02;99762.61;;;17.46;100.00
54369;BME280;40266;52.434;17.056;2023-09-19T03:49:48;99755.96;;;17.42;100.00
54369;BME280;40266;52.434;17.056;2023-09-19T03:52:31;99749.45;;;17.36;100.00
54369;BME280;40266;52.434;17.056;2023-09-19T03:55:13;99753.45;;;17.31;100.00
54369;BME280;40266;52.434;17.056;2023-09-19T03:57:56;99744.81;;;17.27;100.00
54369;BME280;40266;52.434;17.056;2023-09-19T04:00:39;99749.67;;;17.23;100.00
54369;BME280;40266;52.434;17.056;2023-09-19T04:03:22;99752.88;;;17.20;100.00
54369;BME280;40266;52.434;17.056;2023-09-19T04:06:05;99754.98;;;17.17;100.00
54369;BME280;40266;52.434;17.056;2023-09-19T04:08:48;99757.64;;;17.14;100.00
54369;BME280;40266;52.434;17.056;2023-09-19T04:11:31;99768.05;;;17.11;100.00
54369;BME280;40266;52.434;17.056;2023-09-19T04:14:16;99770.61;;;17.09;100.00
54369;BME280;40266;52.434;17.056;2023-09-19T04:16:59;99775.35;;;17.07;100.00
54369;BME280;40266;52.434;17.056;2023-09-19T04:19:43;99768.46;;;17.03;100.00
54369;BME280;40266;52.434;17.056;2023-09-19T04:22:28;99770.48;;;17.02;100.00
54369;BME280;40266;52.434;17.056;2023-09-19T04:25:11;99767.71;;;17.01;100.00
54369;BME280;40266;52.434;17.056;2023-09-19T04:27:54;99767.83;;;16.99;100.00
54369;BME280;40266;52.434;17.056;2023-09-19T04:30:37;99765.07;;;16.98;100.00
54369;BME280;40266;52.434;17.056;2023-09-19T04:33:23;99758.35;;;16.96;100.00
54369;BME280;40266;52.434;17.056;2023-09-19T04:36:06;99753.69;;;16.94;100.00
54369;BME280;40266;52.434;17.056;2023-09-19T04:39:10;99754.09;;;16.93;100.00
54369;BME280;40266;52.434;17.056;2023-09-19T04:41:56;99762.67;;;16.91;100.00
54369;BME280;40266;52.434;17.056;2023-09-19T04:44:39;99760.54;;;16.89;100.00
54369;BME280;40266;52.434;17.056;2023-09-19T04:47:22;99763.92;;;16.88;100.00
54369;BME280;40266;52.434;17.056;2023-09-19T04:50:07;99773.34;;;16.86;100.00
54369;BME280;40266;52.434;17.056;2023-09-19T04:52:50;99776.64;;;16.84;100.00
54369;BME280;40266;52.434;17.056;2023-09-19T04:55:34;99774.11;;;16.82;100.00
54369;BME280;40266;52.434;17.056;2023-09-19T04:58:16;99769.10;;;16.80;100.00
54369;BME280;40266;52.434;17.056;2023-09-19T05:01:00;99771.83;;;16.79;100.00
54369;BME280;40266;52.434;17.056;2023-09-19T05:03:46;99768.33;;;16.78;100.00
54369;BME280;40266;52.434;17.056;2023-09-19T05:06:34;99769.58;;;16.78;100.00
54369;BME280;40266;52.434;17.056;2023-09-19T05:09:18;99776.27;;;16.78;100.00
54369;BME280;40266;52.434;17.056;2023-09-19T05:12:03;99772.73;;;16.78;100.00
54369;BME280;40266;52.434;17.056;2023-09-19T05:14:46;99773.45;;;16.79;100.00
54369;BME280;40266;52.434;17.056;2023-09-19T05:17:29;99775.30;;;16.80;100.00
54369;BME280;40266;52.434;17.056;2023-09-19T05:20:12;99775.82;;;16.80;100.00
54369;BME280;40266;52.434;17.056;2023-09-19T05:23:07;99781.23;;;16.81;100.00
54369;BME280;40266;52.434;17.056;2023-09-19T05:25:54;99783.36;;;16.81;100.00
54369;BME280;40266;52.434;17.056;2023-09-19T05:28:39;99783.77;;;16.80;100.00
54369;BME280;40266;52.434;17.056;2023-09-19T05:31:22;99782.08;;;16.82;100.00
54369;BME280;40266;52.434;17.056;2023-09-19T05:34:06;99788.85;;;16.84;100.00
54369;BME280;40266;52.434;17.056;2023-09-19T05:36:49;99789.52;;;16.84;100.00
54369;BME280;40266;52.434;17.056;2023-09-19T05:39:31;99785.20;;;16.85;100.00
54369;BME280;40266;52.434;17.056;2023-09-19T05:42:14;99788.11;;;16.87;100.00
54369;BME280;40266;52.434;17.056;2023-09-19T05:44:57;99788.73;;;16.89;100.00
54369;BME280;40266;52.434;17.056;2023-09-19T05:47:41;99791.83;;;16.90;100.00
54369;BME280;40266;52.434;17.056;2023-09-19T05:50:25;99790.38;;;16.91;100.00
54369;BME280;40266;52.434;17.056;2023-09-19T05:53:09;99796.83;;;16.95;100.00
54369;BME280;40266;52.434;17.056;2023-09-19T05:55:55;99792.36;;;16.99;100.00
54369;BME280;40266;52.434;17.056;2023-09-19T05:58:38;99794.60;;;17.03;100.00
54369;BME280;40266;52.434;17.056;2023-09-19T06:01:21;99790.30;;;17.07;100.00
54369;BME280;40266;52.434;17.056;2023-09-19T06:04:05;99793.17;;;17.13;100.00
54369;BME280;40266;52.434;17.056;2023-09-19T06:06:48;99790.43;;;17.17;100.00
54369;BME280;40266;52.434;17.056;2023-09-19T06:09:31;99796.03;;;17.21;100.00
54369;BME280;40266;52.434;17.056;2023-09-19T06:12:15;99798.71;;;17.26;100.00
54369;BME280;40266;52.434;17.056;2023-09-19T06:14:59;99805.69;;;17.31;100.00
54369;BME280;40266;52.434;17.056;2023-09-19T06:17:45;99804.50;;;17.36;100.00
54369;BME280;40266;52.434;17.056;2023-09-19T06:20:29;99812.88;;;17.40;100.00
54369;BME280;40266;52.434;17.056;2023-09-19T06:23:12;99810.91;;;17.47;100.00
54369;BME280;40266;52.434;17.056;2023-09-19T06:25:55;99814.05;;;17.57;100.00
54369;BME280;40266;52.434;17.056;2023-09-19T06:28:40;99819.09;;;17.66;100.00
54369;BME280;40266;52.434;17.056;2023-09-19T06:31:22;99821.04;;;17.75;100.00
54369;BME280;40266;52.434;17.056;2023-09-19T06:34:09;99827.65;;;17.80;100.00
54369;BME280;40266;52.434;17.056;2023-09-19T06:36:52;99836.59;;;17.81;100.00
54369;BME280;40266;52.434;17.056;2023-09-19T06:39:35;99834.08;;;17.85;100.00
54369;BME280;40266;52.434;17.056;2023-09-19T06:42:18;99840.92;;;17.88;100.00
54369;BME280;40266;52.434;17.056;2023-09-19T06:45:05;99843.22;;;17.91;100.00
54369;BME280;40266;52.434;17.056;2023-09-19T06:47:50;99847.98;;;17.91;100.00
54369;BME280;40266;52.434;17.056;2023-09-19T06:50:33;99842.96;;;17.93;100.00
54369;BME280;40266;52.434;17.056;2023-09-19T06:53:17;99842.39;;;17.97;100.00
54369;BME280;40266;52.434;17.056;2023-09-19T06:56:00;99847.10;;;18.00;100.00
54369;BME280;40266;52.434;17.056;2023-09-19T06:58:43;99848.26;;;18.04;100.00
54369;BME280;40266;52.434;17.056;2023-09-19T07:01:26;99856.77;;;18.10;100.00
54369;BME280;40266;52.434;17.056;2023-09-19T07:04:10;99861.72;;;18.16;100.00
54369;BME280;40266;52.434;17.056;2023-09-19T07:06:52;99866.30;;;18.21;100.00
54369;BME280;40266;52.434;17.056;2023-09-19T07:09:35;99865.84;;;18.37;100.00
54369;BME280;40266;52.434;17.056;2023-09-19T07:12:19;99875.33;;;18.44;100.00
54369;BME280;40266;52.434;17.056;2023-09-19T07:15:02;99873.70;;;18.53;100.00
54369;BME280;40266;52.434;17.056;2023-09-19T07:17:46;99872.46;;;18.61;100.00
54369;BME280;40266;52.434;17.056;2023-09-19T07:20:30;99879.95;;;18.63;100.00
54369;BME280;40266;52.434;17.056;2023-09-19T07:23:16;99886.91;;;18.65;100.00
54369;BME280;40266;52.434;17.056;2023-09-19T07:26:01;99889.64;;;18.58;100.00
54369;BME280;40266;52.434;17.056;2023-09-19T07:28:44;99894.78;;;18.55;100.00
54369;BME280;40266;52.434;17.056;2023-09-19T07:31:27;99896.36;;;18.61;100.00
54369;BME280;40266;52.434;17.056;2023-09-19T07:34:11;99898.06;;;18.70;100.00
54369;BME280;40266;52.434;17.056;2023-09-19T07:36:54;99901.31;;;18.89;100.00
54369;BME280;40266;52.434;17.056;2023-09-19T07:39:37;99909.64;;;19.08;100.00
54369;BME280;40266;52.434;17.056;2023-09-19T07:42:20;99905.59;;;19.27;100.00
54369;BME280;40266;52.434;17.056;2023-09-19T07:45:03;99910.98;;;19.36;99.99
54369;BME280;40266;52.434;17.056;2023-09-19T07:47:47;99909.53;;;19.50;99.21
54369;BME280;40266;52.434;17.056;2023-09-19T07:50:30;99908.12;;;19.69;99.15
54369;BME280;40266;52.434;17.056;2023-09-19T07:53:13;99913.30;;;20.20;98.08
54369;BME280;40266;52.434;17.056;2023-09-19T07:56:04;99922.95;;;20.32;96.00
54369;BME280;40266;52.434;17.056;2023-09-19T07:58:47;99927.07;;;20.32;95.52
54369;BME280;40266;52.434;17.056;2023-09-19T08:01:30;99932.95;;;20.36;94.84
54369;BME280;40266;52.434;17.056;2023-09-19T08:04:14;99938.93;;;20.24;93.27
54369;BME280;40266;52.434;17.056;2023-09-19T08:06:57;99937.05;;;20.13;94.17
54369;BME280;40266;52.434;17.056;2023-09-19T08:09:43;99937.50;;;20.06;94.24
54369;BME280;40266;52.434;17.056;2023-09-19T08:12:29;99941.77;;;20.07;94.91
54369;BME280;40266;52.434;17.056;2023-09-19T08:17:56;99949.60;;;20.13;93.24
54369;BME280;40266;52.434;17.056;2023-09-19T08:20:40;99954.04;;;20.13;93.08
54369;BME280;40266;52.434;17.056;2023-09-19T08:23:25;99953.34;;;20.16;93.30
54369;BME280;40266;52.434;17.056;2023-09-19T08:26:08;99957.82;;;20.17;92.90
54369;BME280;40266;52.434;17.056;2023-09-19T08:28:51;99963.34;;;20.15;92.00
54369;BME280;40266;52.434;17.056;2023-09-19T08:31:34;99968.64;;;20.12;90.43
54369;BME280;40266;52.434;17.056;2023-09-19T08:34:17;99974.48;;;20.08;89.11
54369;BME280;40266;52.434;17.056;2023-09-19T08:37:00;99975.09;;;20.00;88.18
54369;BME280;40266;52.434;17.056;2023-09-19T08:39:43;99977.32;;;19.96;88.59
54369;BME280;40266;52.434;17.056;2023-09-19T08:42:27;99977.20;;;19.98;88.87
54369;BME280;40266;52.434;17.056;2023-09-19T08:45:10;99983.27;;;20.03;88.30
54369;BME280;40266;52.434;17.056;2023-09-19T08:48:17;99983.54;;;20.10;88.58
54369;BME280;40266;52.434;17.056;2023-09-19T08:51:06;99983.40;;;20.09;86.76
54369;BME280;40266;52.434;17.056;2023-09-19T08:54:08;99985.34;;;20.09;86.60
54369;BME280;40266;52.434;17.056;2023-09-19T08:56:54;99987.80;;;20.15;86.53
54369;BME280;40266;52.434;17.056;2023-09-19T08:59:38;99986.95;;;20.19;86.30
54369;BME280;40266;52.434;17.056;2023-09-19T09:02:23;99987.43;;;20.22;84.44
54369;BME280;40266;52.434;17.056;2023-09-19T09:05:09;99989.69;;;20.21;84.25
54369;BME280;40266;52.434;17.056;2023-09-19T09:07:54;99990.61;;;20.23;83.32
54369;BME280;40266;52.434;17.056;2023-09-19T09:10:39;99978.97;;;20.27;82.45
54369;BME280;40266;52.434;17.056;2023-09-19T09:13:24;99979.48;;;20.35;82.93
54369;BME280;40266;52.434;17.056;2023-09-19T09:16:09;99982.09;;;20.41;81.68
54369;BME280;40266;52.434;17.056;2023-09-19T09:18:53;99983.08;;;20.42;80.15
54369;BME280;40266;52.434;17.056;2023-09-19T09:21:37;99986.84;;;20.39;77.15
54369;BME280;40266;52.434;17.056;2023-09-19T09:24:31;99989.84;;;20.36;77.95
54369;BME280;40266;52.434;17.056;2023-09-19T09:27:17;99998.26;;;20.33;76.94
54369;BME280;40266;52.434;17.056;2023-09-19T09:30:00;100002.00;;;20.33;76.91
54369;BME280;40266;52.434;17.056;2023-09-19T09:32:43;100007.67;;;20.35;76.92
54369;BME280;40266;52.434;17.056;2023-09-19T09:35:54;100017.11;;;20.35;75.73
54369;BME280;40266;52.434;17.056;2023-09-19T09:38:46;100015.41;;;20.34;75.79
54369;BME280;40266;52.434;17.056;2023-09-19T09:41:42;100015.34;;;20.39;75.67
54369;BME280;40266;52.434;17.056;2023-09-19T09:44:25;100020.09;;;20.48;75.16
54369;BME280;40266;52.434;17.056;2023-09-19T09:47:10;100021.81;;;20.57;74.61
54369;BME280;40266;52.434;17.056;2023-09-19T09:50:11;100022.21;;;20.64;73.47
54369;BME280;40266;52.434;17.056;2023-09-19T09:53:00;100032.43;;;20.67;72.75
54369;BME280;40266;52.434;17.056;2023-09-19T09:58:52;100043.08;;;20.73;72.00
54369;BME280;40266;52.434;17.056;2023-09-19T10:01:48;100055.20;;;20.74;71.14
54369;BME280;40266;52.434;17.056;2023-09-19T10:04:31;100063.69;;;20.77;70.38
54369;BME280;40266;52.434;17.056;2023-09-19T10:07:30;100068.30;;;20.69;69.67
54369;BME280;40266;52.434;17.056;2023-09-19T10:10:40;100073.34;;;20.53;69.33
54369;BME280;40266;52.434;17.056;2023-09-19T10:13:25;100079.59;;;20.42;70.08
54369;BME280;40266;52.434;17.056;2023-09-19T10:16:12;100077.17;;;20.30;69.51
54369;BME280;40266;52.434;17.056;2023-09-19T10:19:01;100077.23;;;20.19;69.91
54369;BME280;40266;52.434;17.056;2023-09-19T10:21:45;100080.30;;;20.10;70.16
54369;BME280;40266;52.434;17.056;2023-09-19T10:24:28;100078.40;;;20.20;71.01
54369;BME280;40266;52.434;17.056;2023-09-19T10:27:13;100071.91;;;20.35;70.28
54369;BME280;40266;52.434;17.056;2023-09-19T10:30:05;100069.30;;;20.47;67.50
54369;BME280;40266;52.434;17.056;2023-09-19T10:32:59;100067.14;;;20.58;66.93
54369;BME280;40266;52.434;17.056;2023-09-19T10:35:45;100062.13;;;20.66;67.63
54369;BME280;40266;52.434;17.056;2023-09-19T10:38:28;100063.63;;;20.78;68.21
54369;BME280;40266;52.434;17.056;2023-09-19T10:41:14;100058.02;;;20.84;66.46
54369;BME280;40266;52.434;17.056;2023-09-19T10:43:59;100058.77;;;20.95;67.56
54369;BME280;40266;52.434;17.056;2023-09-19T10:46:42;100057.11;;;21.03;65.24
54369;BME280;40266;52.434;17.056;2023-09-19T10:49:26;100056.38;;;21.08;65.98
54369;BME280;40266;52.434;17.056;2023-09-19T10:52:09;100055.40;;;21.19;66.00
54369;BME280;40266;52.434;17.056;2023-09-19T10:54:58;100055.29;;;21.26;64.94
54369;BME280;40266;52.434;17.056;2023-09-19T10:57:46;100056.36;;;21.33;66.18
54369;BME280;40266;52.434;17.056;2023-09-19T11:00:30;100055.33;;;21.40;63.64
54369;BME280;40266;52.434;17.056;2023-09-19T11:03:18;100060.84;;;21.50;63.66
54369;BME280;40266;52.434;17.056;2023-09-19T11:09:03;100067.24;;;21.70;60.93
54369;BME280;40266;52.434;17.056;2023-09-19T11:11:50;100068.67;;;21.79;61.34
54369;BME280;40266;52.434;17.056;2023-09-19T11:14:40;100070.77;;;21.85;57.58
54369;BME280;40266;52.434;17.056;2023-09-19T11:20:18;100084.25;;;21.70;54.43
54369;BME280;40266;52.434;17.056;2023-09-19T11:25:50;100088.30;;;21.49;50.96
54369;BME280;40266;52.434;17.056;2023-09-19T11:28:34;100096.52;;;21.48;52.29
54369;BME280;40266;52.434;17.056;2023-09-19T11:31:41;100091.94;;;21.48;53.04
54369;BME280;40266;52.434;17.056;2023-09-19T11:40:09;100098.98;;;21.41;55.64
54369;BME280;40266;52.434;17.056;2023-09-19T11:42:56;100099.85;;;21.44;55.59
54369;BME280;40266;52.434;17.056;2023-09-19T11:48:29;100102.38;;;21.43;54.13
54369;BME280;40266;52.434;17.056;2023-09-19T11:51:14;100102.48;;;21.39;54.55
54369;BME280;40266;52.434;17.056;2023-09-19T11:54:03;100106.92;;;21.39;55.28
54369;BME280;40266;52.434;17.056;2023-09-19T11:56:48;100112.79;;;21.39;55.79
54369;BME280;40266;52.434;17.056;2023-09-19T11:59:33;100109.23;;;21.34;55.13
54369;BME280;40266;52.434;17.056;2023-09-19T12:02:37;100112.29;;;21.34;55.08
54369;BME280;40266;52.434;17.056;2023-09-19T12:05:30;100112.83;;;21.31;55.18
54369;BME280;40266;52.434;17.056;2023-09-19T12:08:16;100106.92;;;21.32;55.36
54369;BME280;40266;52.434;17.056;2023-09-19T12:11:04;100103.32;;;21.29;54.01
54369;BME280;40266;52.434;17.056;2023-09-19T12:13:47;100099.05;;;21.29;54.30
54369;BME280;40266;52.434;17.056;2023-09-19T12:16:31;100101.45;;;21.34;53.83
54369;BME280;40266;52.434;17.056;2023-09-19T12:19:19;100105.33;;;21.36;53.73
54369;BME280;40266;52.434;17.056;2023-09-19T12:22:04;100096.48;;;21.41;53.83
54369;BME280;40266;52.434;17.056;2023-09-19T12:24:48;100090.31;;;21.46;53.51
54369;BME280;40266;52.434;17.056;2023-09-19T12:27:50;100091.05;;;21.53;54.13
54369;BME280;40266;52.434;17.056;2023-09-19T12:30:36;100095.17;;;21.60;52.95
54369;BME280;40266;52.434;17.056;2023-09-19T12:33:20;100087.84;;;21.60;52.62
54369;BME280;40266;52.434;17.056;2023-09-19T12:36:23;100089.84;;;21.64;52.86
54369;BME280;40266;52.434;17.056;2023-09-19T12:39:22;100092.63;;;21.65;51.81
54369;BME280;40266;52.434;17.056;2023-09-19T12:42:11;100091.18;;;21.58;51.90
54369;BME280;40266;52.434;17.056;2023-09-19T12:44:58;100091.50;;;21.59;51.94
54369;BME280;40266;52.434;17.056;2023-09-19T12:51:12;100091.75;;;21.40;51.49
54369;BME280;40266;52.434;17.056;2023-09-19T12:53:57;100098.84;;;21.30;52.02
54369;BME280;40266;52.434;17.056;2023-09-19T12:56:42;100096.80;;;21.26;52.15
54369;BME280;40266;52.434;17.056;2023-09-19T12:59:31;100097.54;;;21.31;52.34
54369;BME280;40266;52.434;17.056;2023-09-19T13:02:15;100094.84;;;21.37;51.12
54369;BME280;40266;52.434;17.056;2023-09-19T13:05:01;100089.67;;;21.37;50.11
54369;BME280;40266;52.434;17.056;2023-09-19T13:07:47;100097.64;;;21.35;49.81
54369;BME280;40266;52.434;17.056;2023-09-19T13:10:32;100099.23;;;21.37;50.07
54369;BME280;40266;52.434;17.056;2023-09-19T13:13:23;100091.18;;;21.43;49.42
54369;BME280;40266;52.434;17.056;2023-09-19T13:16:11;100090.72;;;21.55;49.64
54369;BME280;40266;52.434;17.056;2023-09-19T13:18:57;100086.84;;;21.62;48.79
54369;BME280;40266;52.434;17.056;2023-09-19T13:21:40;100088.06;;;21.62;47.94
54369;BME280;40266;52.434;17.056;2023-09-19T13:24:32;100089.17;;;21.59;48.73
54369;BME280;40266;52.434;17.056;2023-09-19T13:27:17;100089.28;;;21.62;49.00
54369;BME280;40266;52.434;17.056;2023-09-19T13:30:00;100102.16;;;21.71;49.75
54369;BME280;40266;52.434;17.056;2023-09-19T13:32:44;100101.86;;;21.78;48.96
54369;BME280;40266;52.434;17.056;2023-09-19T13:35:28;100095.61;;;21.80;48.70
54369;BME280;40266;52.434;17.056;2023-09-19T13:38:11;100096.32;;;21.78;48.59
54369;BME280;40266;52.434;17.056;2023-09-19T13:40:54;100101.44;;;21.71;48.88
54369;BME280;40266;52.434;17.056;2023-09-19T13:43:39;100102.55;;;21.58;48.95
54369;BME280;40266;52.434;17.056;2023-09-19T13:46:22;100107.64;;;21.44;49.83
54369;BME280;40266;52.434;17.056;2023-09-19T13:49:09;100105.90;;;21.34;50.71
54369;BME280;40266;52.434;17.056;2023-09-19T13:51:54;100105.85;;;21.24;50.96
54369;BME280;40266;52.434;17.056;2023-09-19T13:54:37;100104.54;;;21.15;51.41
54369;BME280;40266;52.434;17.056;2023-09-19T13:57:21;100105.22;;;21.15;52.14
54369;BME280;40266;52.434;17.056;2023-09-19T14:00:04;100105.40;;;21.20;52.01
54369;BME280;40266;52.434;17.056;2023-09-19T14:02:53;100101.36;;;21.30;51.99
54369;BME280;40266;52.434;17.056;2023-09-19T14:05:37;100096.44;;;21.39;52.62
54369;BME280;40266;52.434;17.056;2023-09-19T14:08:20;100100.05;;;21.44;53.04
54369;BME280;40266;52.434;17.056;2023-09-19T14:11:06;100099.34;;;21.43;53.25
54369;BME280;40266;52.434;17.056;2023-09-19T14:13:50;100100.67;;;21.37;53.14
54369;BME280;40266;52.434;17.056;2023-09-19T14:16:37;100100.70;;;21.32;53.94
54369;BME280;40266;52.434;17.056;2023-09-19T14:19:20;100102.70;;;21.28;54.31
54369;BME280;40266;52.434;17.056;2023-09-19T14:22:04;100098.77;;;21.21;54.32
54369;BME280;40266;52.434;17.056;2023-09-19T14:24:50;100098.61;;;21.13;54.60
54369;BME280;40266;52.434;17.056;2023-09-19T14:27:34;100096.86;;;21.05;54.56
54369;BME280;40266;52.434;17.056;2023-09-19T14:30:17;100101.95;;;20.99;54.89
54369;BME280;40266;52.434;17.056;2023-09-19T14:33:00;100110.80;;;20.92;54.51
54369;BME280;40266;52.434;17.056;2023-09-19T14:35:43;100109.48;;;20.84;54.01
54369;BME280;40266;52.434;17.056;2023-09-19T14:38:26;100108.66;;;20.84;53.96
54369;BME280;40266;52.434;17.056;2023-09-19T14:41:09;100111.77;;;20.85;52.44
54369;BME280;40266;52.434;17.056;2023-09-19T14:43:53;100116.41;;;20.90;52.44
54369;BME280;40266;52.434;17.056;2023-09-19T14:46:36;100117.48;;;20.92;51.71
54369;BME280;40266;52.434;17.056;2023-09-19T14:49:19;100120.70;;;20.95;52.19
54369;BME280;40266;52.434;17.056;2023-09-19T14:52:02;100125.23;;;20.93;52.40
54369;BME280;40266;52.434;17.056;2023-09-19T14:54:48;100125.73;;;20.89;50.61
54369;BME280;40266;52.434;17.056;2023-09-19T14:57:30;100119.84;;;20.81;49.56